Chepstow, United Kingdom
Current Conditions -  °F | °C
As of 1:50 AM on Friday 21 Nov 2014 (Local Time) from EGGD Reporting Station
Haze Haze  
Wind Chill:   Ceiling: 800
Heat Index:   Visibility: 2.8mi
Dew Point:   Wind: 15mph
Humidity: 93%   Direction: 90°E
Pressure: 30.12"   Gusts: NA
Location:  51.64°N, 2.68°W
Report Text: EGGD 210150Z 09013KT 4500 BR BKN008 06/05 Q1020
Loading
Personal Weather Stations






























Interactive Weather Map New forecast layout! Learn more

10-Day Weather Forecast

Advertisements
Track Severe Weather on mobile